createdAt,value
2022-12-08T00:02:32.468Z,80.16
2022-12-08T00:06:44.705Z,80.26
2022-12-08T00:10:50.820Z,80.22
2022-12-08T00:14:44.447Z,80.01
2022-12-08T00:18:35.260Z,80.35
2022-12-08T00:22:25.662Z,80.44
2022-12-08T00:26:16.486Z,80.64
2022-12-08T00:30:07.904Z,80.64
2022-12-08T00:33:59.122Z,80.75
2022-12-08T00:37:49.420Z,80.62
2022-12-08T00:41:58.565Z,80.64
2022-12-08T00:45:48.691Z,80.75
2022-12-08T00:49:38.861Z,80.58
2022-12-08T00:53:31.101Z,80.94
2022-12-08T00:57:21.523Z,80.76
2022-12-08T01:01:13.271Z,80.61
2022-12-08T01:05:04.045Z,80.62
2022-12-08T01:08:54.345Z,80.96
2022-12-08T01:12:44.543Z,80.86
2022-12-08T01:16:36.493Z,80.86
2022-12-08T01:20:27.237Z,80.96
2022-12-08T01:24:20.766Z,81.02
2022-12-08T01:28:11.793Z,81.15
2022-12-08T01:32:02.490Z,81.29
2022-12-08T01:35:53.814Z,81.47
2022-12-08T01:39:44.135Z,81.31
2022-12-08T01:43:55.199Z,80.80
2022-12-08T01:47:50.221Z,81.81
2022-12-08T01:51:57.407Z,81.73
2022-12-08T01:55:53.449Z,81.98
2022-12-08T01:59:50.801Z,81.78
2022-12-08T02:04:02.409Z,82.43
2022-12-08T02:07:53.533Z,81.91
2022-12-08T02:11:43.827Z,81.98
2022-12-08T02:15:48.588Z,82.09
2022-12-08T02:20:16.236Z,82.55
2022-12-08T02:24:15.751Z,82.30
2022-12-08T02:28:29.738Z,81.98
2022-12-08T02:32:58.302Z,82.25
2022-12-08T02:37:16.774Z,82.32
2022-12-08T02:41:32.457Z,82.03
2022-12-08T02:45:38.835Z,82.13
2022-12-08T02:49:34.253Z,82.22
2022-12-08T02:53:24.963Z,82.41
2022-12-08T02:57:52.230Z,82.48
2022-12-08T03:02:01.603Z,82.62
2022-12-08T03:06:05.822Z,82.87
2022-12-08T03:10:03.267Z,82.08
2022-12-08T03:13:59.508Z,82.38
2022-12-08T03:17:56.195Z,82.11
2022-12-08T03:21:51.984Z,82.60
2022-12-08T03:25:57.029Z,82.38
2022-12-08T03:29:49.376Z,82.54
2022-12-08T03:33:44.597Z,82.33
2022-12-08T03:37:36.629Z,82.43
2022-12-08T03:41:27.238Z,82.48
2022-12-08T03:45:17.743Z,82.58
2022-12-08T03:49:08.350Z,82.20
2022-12-08T03:52:58.750Z,82.66
2022-12-08T03:56:49.255Z,82.32
2022-12-08T04:00:39.559Z,82.48
2022-12-08T04:04:32.108Z,82.48
2022-12-08T04:08:22.327Z,82.44
2022-12-08T04:12:12.503Z,82.75
2022-12-08T04:16:05.303Z,82.71
2022-12-08T04:19:55.659Z,82.57
2022-12-08T04:23:47.189Z,82.62
2022-12-08T04:27:37.283Z,82.58
2022-12-08T04:31:27.809Z,83.06
2022-12-08T04:35:18.158Z,82.67
2022-12-08T04:39:08.696Z,83.09
2022-12-08T04:42:59.505Z,82.70
2022-12-08T04:46:49.663Z,83.06
2022-12-08T04:50:42.050Z,82.48
2022-12-08T04:54:32.257Z,82.77
2022-12-08T04:58:22.957Z,82.60
2022-12-08T05:02:13.696Z,82.29
2022-12-08T05:06:05.601Z,82.14
2022-12-08T05:09:55.902Z,81.74
2022-12-08T05:13:46.409Z,81.66
2022-12-08T05:17:36.910Z,81.73
2022-12-08T05:21:27.621Z,81.58
2022-12-08T05:25:17.714Z,81.96
2022-12-08T05:29:08.116Z,81.90
2022-12-08T05:32:58.619Z,81.83
2022-12-08T05:36:49.021Z,81.95
2022-12-08T05:40:40.141Z,82.21
2022-12-08T05:44:30.543Z,82.71
2022-12-08T05:48:21.354Z,82.68
2022-12-08T05:52:11.757Z,83.09
2022-12-08T05:56:02.056Z,83.10
2022-12-08T05:59:52.559Z,83.13
2022-12-08T06:03:44.293Z,83.33
2022-12-08T06:07:35.413Z,83.66
2022-12-08T06:11:29.192Z,83.76
2022-12-08T06:15:19.500Z,83.93
2022-12-08T06:19:10.099Z,83.88
2022-12-08T06:23:00.706Z,84.25
2022-12-08T06:26:50.697Z,83.90
2022-12-08T06:30:42.943Z,83.70
2022-12-08T06:34:36.321Z,84.02
2022-12-08T06:38:28.251Z,84.30
2022-12-08T06:42:37.292Z,83.93
2022-12-08T06:46:29.157Z,84.11
2022-12-08T06:50:23.521Z,84.52
2022-12-08T06:54:13.720Z,84.52
2022-12-08T06:58:04.224Z,84.58
2022-12-08T07:02:03.451Z,84.39
2022-12-08T07:06:03.258Z,84.63
2022-12-08T07:09:56.217Z,85.31
2022-12-08T07:13:47.027Z,84.73
2022-12-08T07:17:37.224Z,85.46
2022-12-08T07:21:27.626Z,85.34
2022-12-08T07:25:19.290Z,85.60
2022-12-08T07:29:10.787Z,85.19
2022-12-08T07:33:18.117Z,84.98
2022-12-08T07:37:10.739Z,85.54
2022-12-08T07:41:04.957Z,85.56
2022-12-08T07:44:55.843Z,85.42
2022-12-08T07:48:46.556Z,85.41
2022-12-08T07:52:36.956Z,86.13
2022-12-08T07:56:27.049Z,85.29
2022-12-08T08:00:19.573Z,85.83
2022-12-08T08:04:39.682Z,85.89
2022-12-08T08:08:30.473Z,85.83
2022-12-08T08:12:36.224Z,85.97
2022-12-08T08:16:26.789Z,86.42
2022-12-08T08:20:18.306Z,86.71
2022-12-08T08:24:09.438Z,86.13
2022-12-08T08:27:59.949Z,86.48
2022-12-08T08:31:50.636Z,86.67
2022-12-08T08:35:42.309Z,86.89
2022-12-08T08:39:32.776Z,86.64
2022-12-08T08:43:34.311Z,86.96
2022-12-08T08:47:28.321Z,86.78
2022-12-08T08:51:18.548Z,86.87
2022-12-08T08:55:09.126Z,86.69
2022-12-08T08:59:01.438Z,86.77
2022-12-08T09:02:54.230Z,86.53
2022-12-08T09:06:49.179Z,87.03
2022-12-08T09:10:44.365Z,86.87
2022-12-08T09:14:42.796Z,86.72
2022-12-08T09:18:34.903Z,86.28
2022-12-08T09:22:30.525Z,85.94
2022-12-08T09:26:25.093Z,85.94
2022-12-08T09:30:19.784Z,85.99
2022-12-08T09:34:12.571Z,85.67
2022-12-08T09:38:05.837Z,85.56
2022-12-08T09:42:03.059Z,85.94
2022-12-08T09:45:55.333Z,85.79
2022-12-08T09:50:09.076Z,85.50
2022-12-08T09:54:13.425Z,85.29
2022-12-08T09:58:07.023Z,85.32
2022-12-08T10:01:57.584Z,85.40
2022-12-08T10:05:58.351Z,85.01
2022-12-08T10:09:57.457Z,84.89
2022-12-08T10:14:07.827Z,84.97
2022-12-08T10:18:01.908Z,84.69
2022-12-08T10:21:53.649Z,84.66
2022-12-08T10:25:49.273Z,84.54
2022-12-08T10:29:41.252Z,84.60
2022-12-08T10:33:33.465Z,84.67
2022-12-08T10:37:23.446Z,84.39
2022-12-08T10:41:18.125Z,84.26
2022-12-08T10:45:08.789Z,83.96
2022-12-08T10:49:05.304Z,84.12
2022-12-08T10:53:09.936Z,84.21
2022-12-08T10:57:00.645Z,84.20
2022-12-08T11:00:54.533Z,83.99
2022-12-08T11:04:45.137Z,84.12
2022-12-08T11:08:47.314Z,84.05
2022-12-08T11:12:37.737Z,84.49
2022-12-08T11:16:28.270Z,84.36
2022-12-08T11:20:18.315Z,84.15
2022-12-08T11:24:14.558Z,84.42
2022-12-08T11:28:05.776Z,84.35
2022-12-08T11:32:04.444Z,84.77
2022-12-08T11:35:58.149Z,84.56
2022-12-08T11:39:53.783Z,84.74
2022-12-08T11:43:59.845Z,84.77
2022-12-08T11:47:57.617Z,84.70
2022-12-08T11:51:58.262Z,84.69
2022-12-08T11:56:21.839Z,84.84
2022-12-08T11:59:33.431Z,84.62
2022-12-08T12:03:32.702Z,84.47
2022-12-08T12:07:32.008Z,84.25
2022-12-08T12:11:58.609Z,84.78
2022-12-08T12:16:00.987Z,84.30
2022-12-08T12:19:52.637Z,84.24
2022-12-08T12:23:48.035Z,84.12
2022-12-08T12:27:40.586Z,83.96
2022-12-08T12:31:35.597Z,83.81
2022-12-08T12:35:40.951Z,83.72
2022-12-08T12:39:52.855Z,83.82
2022-12-08T12:43:28.511Z,83.35
2022-12-08T12:47:56.318Z,83.60
2022-12-08T12:51:54.168Z,83.42
2022-12-08T12:56:00.852Z,82.92
2022-12-08T13:00:05.496Z,83.04
2022-12-08T13:04:10.845Z,83.09
2022-12-08T13:08:15.902Z,83.18
2022-12-08T13:12:12.435Z,83.04
2022-12-08T13:16:19.525Z,82.86
2022-12-08T13:20:23.449Z,82.73
2022-12-08T13:24:26.950Z,82.84
2022-12-08T13:28:24.624Z,82.85
2022-12-08T13:33:18.563Z,82.83
2022-12-08T13:37:12.502Z,82.82
2022-12-08T13:41:11.407Z,82.84
2022-12-08T13:45:59.185Z,82.54
2022-12-08T13:57:56.699Z,82.59
2022-12-08T14:01:49.682Z,82.66
2022-12-08T14:06:10.916Z,82.44
2022-12-08T14:09:54.313Z,82.73
2022-12-08T14:18:48.445Z,82.92
2022-12-08T14:22:41.481Z,83.17
2022-12-08T14:26:34.653Z,82.98
2022-12-08T14:30:28.224Z,82.65
2022-12-08T14:34:19.036Z,82.83
2022-12-08T14:38:15.134Z,82.87
2022-12-08T14:42:06.807Z,82.74
2022-12-08T14:46:03.486Z,82.56
2022-12-08T14:49:53.756Z,82.69
2022-12-08T14:53:46.694Z,82.47
2022-12-08T14:57:37.116Z,82.43
2022-12-08T15:01:27.415Z,82.16
2022-12-08T15:05:21.650Z,82.11
2022-12-08T15:09:32.587Z,81.83
2022-12-08T15:13:23.300Z,81.73
2022-12-08T15:17:50.052Z,81.72
2022-12-08T15:21:40.968Z,82.11
2022-12-08T15:25:31.833Z,82.24
2022-12-08T15:29:28.967Z,82.22
2022-12-08T15:33:19.902Z,82.23
2022-12-08T15:37:22.083Z,82.18
2022-12-08T15:41:15.379Z,82.45
2022-12-08T15:45:08.552Z,82.22
2022-12-08T15:48:59.176Z,82.20
2022-12-08T15:52:54.290Z,82.36
2022-12-08T16:01:09.127Z,82.09
2022-12-08T16:05:33.845Z,81.89
2022-12-08T16:09:26.649Z,82.28
2022-12-08T16:13:56.655Z,82.46
2022-12-08T16:17:49.673Z,82.47
2022-12-08T16:22:29.878Z,82.52
2022-12-08T16:26:20.275Z,82.76
2022-12-08T16:30:07.259Z,82.95
2022-12-08T16:33:57.437Z,82.80
2022-12-08T16:37:48.968Z,82.96
2022-12-08T16:41:58.413Z,83.32
2022-12-08T16:45:49.767Z,87.83
2022-12-08T16:49:40.650Z,87.35
2022-12-08T16:53:33.107Z,82.47
2022-12-08T16:57:30.224Z,80.86
2022-12-08T17:01:27.965Z,80.64
2022-12-08T17:05:26.787Z,80.95
2022-12-08T17:09:21.469Z,81.10
2022-12-08T17:13:17.070Z,81.47
2022-12-08T17:17:09.818Z,81.56
2022-12-08T17:21:02.367Z,81.63
2022-12-08T17:24:55.671Z,81.68
2022-12-08T17:29:00.627Z,81.68
2022-12-08T17:32:53.033Z,81.73
2022-12-08T17:36:49.319Z,81.46
2022-12-08T17:40:44.925Z,81.51
2022-12-08T17:44:38.245Z,81.50
2022-12-08T17:48:30.307Z,81.30
2022-12-08T17:52:21.015Z,81.21
2022-12-08T17:56:17.162Z,81.09
2022-12-08T18:00:08.587Z,80.97
2022-12-08T18:04:04.515Z,81.08
2022-12-08T18:07:55.060Z,81.21
2022-12-08T18:11:46.650Z,80.95
2022-12-08T18:15:39.358Z,81.03
2022-12-08T18:19:30.726Z,81.08
2022-12-08T18:23:21.945Z,81.29
2022-12-08T18:27:12.040Z,80.89
2022-12-08T18:31:02.824Z,80.86
2022-12-08T18:34:53.354Z,80.76
2022-12-08T18:38:46.364Z,80.67
2022-12-08T18:42:36.763Z,80.76
2022-12-08T18:46:30.051Z,80.41
2022-12-08T18:50:20.594Z,80.37
2022-12-08T18:54:12.992Z,80.42
2022-12-08T18:58:03.650Z,80.51
2022-12-08T19:01:54.500Z,80.33
2022-12-08T19:05:44.761Z,80.08
2022-12-08T19:09:35.694Z,80.13
2022-12-08T19:13:27.471Z,80.22
2022-12-08T19:17:18.124Z,80.32
2022-12-08T19:21:08.928Z,80.48
2022-12-08T19:25:00.252Z,80.26
2022-12-08T19:28:50.962Z,80.13
2022-12-08T19:32:42.345Z,80.18
2022-12-08T19:36:35.694Z,80.12
2022-12-08T19:40:48.392Z,80.51
2022-12-08T19:44:53.034Z,80.33
2022-12-08T19:48:46.438Z,80.46
2022-12-08T19:52:41.282Z,80.71
2022-12-08T19:56:36.348Z,80.49
2022-12-08T20:00:31.118Z,80.69
2022-12-08T20:04:24.278Z,80.83
2022-12-08T20:08:17.246Z,80.76
2022-12-08T20:12:09.715Z,80.88
2022-12-08T20:16:01.131Z,80.91
2022-12-08T20:19:53.865Z,81.16
2022-12-08T20:23:48.954Z,80.73
2022-12-08T20:27:41.560Z,81.09
2022-12-08T20:31:33.895Z,80.70
2022-12-08T20:35:25.648Z,80.90
2022-12-08T20:39:18.636Z,80.82
2022-12-08T20:43:10.123Z,80.60
2022-12-08T20:47:00.672Z,80.81
2022-12-08T20:50:53.429Z,80.97
2022-12-08T20:54:46.767Z,81.20
2022-12-08T20:58:40.911Z,81.45
2022-12-08T21:02:31.415Z,81.42
2022-12-08T21:06:27.765Z,81.54
2022-12-08T21:10:22.830Z,81.93
2022-12-08T21:14:14.046Z,82.22
2022-12-08T21:18:04.936Z,82.31
2022-12-08T21:21:57.166Z,82.37
2022-12-08T21:25:47.988Z,82.53
2022-12-08T21:29:38.278Z,82.46
2022-12-08T21:33:41.226Z,82.40
2022-12-08T21:37:31.983Z,82.15
2022-12-08T21:41:42.946Z,82.67
2022-12-08T21:45:33.994Z,82.47
2022-12-08T21:49:24.408Z,82.61
2022-12-08T21:53:36.455Z,82.53
2022-12-08T21:56:52.648Z,82.63
2022-12-08T22:00:43.340Z,82.32
2022-12-08T22:04:36.275Z,82.45
2022-12-08T22:08:29.160Z,82.66
2022-12-08T22:12:20.961Z,82.63
2022-12-08T22:16:36.118Z,82.71
2022-12-08T22:19:51.620Z,82.57
2022-12-08T22:23:45.947Z,82.49
2022-12-08T22:27:40.982Z,82.63
2022-12-08T22:31:31.925Z,82.60
2022-12-08T22:35:23.192Z,82.59
2022-12-08T22:39:13.772Z,82.67
2022-12-08T22:43:04.321Z,82.83
2022-12-08T22:46:55.086Z,83.06
2022-12-08T22:50:45.993Z,83.13
2022-12-08T22:54:36.840Z,82.93
2022-12-08T22:58:29.162Z,83.22
2022-12-08T23:02:19.361Z,83.50
2022-12-08T23:06:13.438Z,83.11
2022-12-08T23:10:06.419Z,83.36
2022-12-08T23:14:00.588Z,83.43
2022-12-08T23:17:51.919Z,83.26
2022-12-08T23:21:42.592Z,83.05
2022-12-08T23:25:33.089Z,83.63
2022-12-08T23:29:23.492Z,83.57
2022-12-08T23:33:13.963Z,83.26
2022-12-08T23:37:05.367Z,83.23
2022-12-08T23:41:00.620Z,83.69
2022-12-08T23:44:51.250Z,83.57
2022-12-08T23:48:41.712Z,83.66
2022-12-08T23:52:31.786Z,83.74
2022-12-08T23:56:28.333Z,83.96
